Time;durP1;ratioP1;P1;durP2;ratioP2;P2;SDS_P1;SDS_P2;PMS_P1;PMS_P2;Temp;Humidity;BMP_temperature;BMP_pressure;BME280_temperature;BME280_humidity;BME280_pressure;Samples;Min_cycle;Max_cycle;Signal;HPM_P1;HPM_P2
2022/05/06 00:01:39;;;;;;;7.28;3.90;;;;;;;12.75;nan;-24173.13;4906377;29;20319;-75
2022/05/06 00:04:06;;;;;;;5.47;3.78;;;;;;;12.75;nan;-24172.97;4891175;29;20235;-73
2022/05/06 00:06:32;;;;;;;4.80;3.42;;;;;;;13.01;nan;-24180.28;4906424;29;20183;-75
2022/05/06 00:08:57;;;;;;;5.78;3.60;;;;;;;13.02;nan;-24180.44;4895671;29;20192;-75
2022/05/06 00:11:23;;;;;;;5.95;3.35;;;;;;;13.00;nan;-24179.88;4897016;29;20615;-75
2022/05/06 00:13:52;;;;;;;6.38;3.50;;;;;;;12.91;nan;-24177.47;4894475;29;20192;-77
2022/05/06 00:16:21;;;;;;;4.78;3.75;;;;;;;12.95;nan;-24178.59;4895046;29;20672;-76
2022/05/06 00:18:47;;;;;;;6.07;3.55;;;;;;;13.17;nan;-24184.78;4894829;29;20196;-77
2022/05/06 00:21:12;;;;;;;5.22;3.80;;;;;;;13.03;nan;-24180.84;4894574;29;20198;-75
2022/05/06 00:23:38;;;;;;;10.25;3.80;;;;;;;12.67;nan;-24170.72;4895893;29;20207;-77
2022/05/06 00:26:03;;;;;;;6.30;3.80;;;;;;;12.78;nan;-24173.81;4906773;29;20188;-77
2022/05/06 00:28:30;;;;;;;7.18;4.05;;;;;;;12.52;nan;-24166.50;4887022;29;20188;-75
2022/05/06 00:30:56;;;;;;;5.90;3.40;;;;;;;12.44;nan;-24164.41;4886714;29;20302;-76
2022/05/06 00:33:24;;;;;;;4.32;3.10;;;;;;;12.37;nan;-24162.44;4886862;29;20734;-75
2022/05/06 00:35:55;;;;;;;4.93;3.45;;;;;;;12.80;nan;-24174.53;4886691;29;22044;-77
2022/05/06 00:38:21;;;;;;;6.00;3.30;;;;;;;12.69;nan;-24171.28;4884947;29;20275;-75
2022/05/06 00:40:46;;;;;;;4.28;3.75;;;;;;;12.35;nan;-24161.88;4885890;29;20271;-75
2022/05/06 00:43:12;;;;;;;4.70;3.42;;;;;;;12.58;nan;-24168.19;4871195;29;20216;-76
2022/05/06 00:45:54;;;;;;;5.35;3.88;;;;;;;12.52;nan;-24166.50;4886241;29;20196;-74
2022/05/06 00:48:26;;;;;;;5.10;3.63;;;;;;;12.55;nan;-24167.34;4901404;29;20191;-76
2022/05/06 00:50:51;;;;;;;6.82;3.83;;;;;;;12.45;nan;-24164.53;4887753;29;20184;-76
2022/05/06 00:53:18;;;;;;;6.70;3.97;;;;;;;12.37;nan;-24162.56;4888314;29;21022;-76
2022/05/06 00:55:44;;;;;;;4.40;3.65;;;;;;;12.34;nan;-24161.72;4888070;29;20714;-75
2022/05/06 00:58:10;;;;;;;7.05;3.85;;;;;;;12.46;nan;-24164.81;4886331;29;20215;-75
2022/05/06 01:00:35;;;;;;;9.23;3.88;;;;;;;12.35;nan;-24161.88;4900557;29;20227;-76
2022/05/06 01:03:01;;;;;;;4.22;3.63;;;;;;;12.27;nan;-24159.75;4888261;29;20192;-77
2022/05/06 01:05:27;;;;;;;7.85;3.63;;;;;;;12.34;nan;-24161.59;4891299;29;20187;-77
2022/05/06 01:07:53;;;;;;;6.40;3.80;;;;;;;12.00;nan;-24152.16;4889309;29;20176;-75
2022/05/06 01:10:20;;;;;;;4.50;3.72;;;;;;;12.00;nan;-24152.00;4886794;29;20754;-75
2022/05/06 01:12:47;;;;;;;6.25;3.72;;;;;;;12.07;nan;-24154.00;4885755;29;20180;-75
2022/05/06 01:15:24;;;;;;;5.28;3.67;;;;;;;11.77;nan;-24145.69;4887591;29;20231;-76
2022/05/06 01:17:55;;;;;;;4.38;3.63;;;;;;;11.93;nan;-24150.19;4886349;29;20286;-76
2022/05/06 01:20:22;;;;;;;5.20;3.88;;;;;;;12.03;nan;-24152.84;4869978;29;20196;-76
2022/05/06 01:22:50;;;;;;;7.22;4.05;;;;;;;11.71;nan;-24143.97;4900180;29;20279;-77
2022/05/06 01:25:17;;;;;;;5.28;3.72;;;;;;;11.91;nan;-24149.63;4885940;29;20240;-77
2022/05/06 01:27:55;;;;;;;8.57;4.40;;;;;;;11.95;nan;-24150.88;4886238;29;20664;-76
2022/05/06 01:30:40;;;;;;;4.60;3.90;;;;;;;11.89;nan;-24149.06;4889857;29;20203;-75
2022/05/06 01:33:16;;;;;;;8.57;4.25;;;;;;;11.61;nan;-24141.31;4886254;29;20194;-75
2022/05/06 01:35:49;;;;;;;7.03;4.18;;;;;;;11.51;nan;-24138.50;4886901;29;20298;-76
2022/05/06 01:38:40;;;;;;;5.70;4.43;;;;;;;11.73;nan;-24144.69;4886344;29;22072;-75
2022/05/06 01:41:09;;;;;;;5.57;4.40;;;;;;;11.52;nan;-24138.78;4883474;29;20192;-75
2022/05/06 01:43:42;;;;;;;5.18;4.13;;;;;;;11.62;nan;-24141.44;4885337;29;20573;-74
2022/05/06 01:46:13;;;;;;;7.75;4.78;;;;;;;11.41;nan;-24135.66;4887355;29;20246;-77
2022/05/06 01:48:41;;;;;;;7.60;4.75;;;;;;;11.21;nan;-24130.19;4887152;29;20232;-76
2022/05/06 01:51:10;;;;;;;7.28;4.65;;;;;;;11.38;nan;-24134.97;4890815;29;20188;-74
2022/05/06 01:53:36;;;;;;;7.43;4.65;;;;;;;11.19;nan;-24129.47;4888759;29;20272;-75
2022/05/06 01:56:02;;;;;;;5.60;4.35;;;;;;;11.59;nan;-24140.59;4870210;29;20680;-74
2022/05/06 01:58:28;;;;;;;6.88;4.53;;;;;;;11.22;nan;-24130.47;4887829;29;21970;-76
2022/05/06 02:00:53;;;;;;;7.32;4.55;;;;;;;11.23;nan;-24130.75;4888281;29;20606;-75
2022/05/06 02:06:04;;;;;;;10.88;5.13;;;;;;;11.11;nan;-24127.34;4886065;29;20203;-77
2022/05/06 02:08:30;;;;;;;18.88;5.47;;;;;;;11.36;nan;-24134.41;4888058;29;20184;-76
2022/05/06 02:10:55;;;;;;;13.73;6.35;;;;;;;11.28;nan;-24132.16;4901839;29;21627;-77
2022/05/06 02:13:21;;;;;;;11.57;4.80;;;;;;;11.10;nan;-24126.94;4890040;29;20191;-76
2022/05/06 02:15:46;;;;;;;9.25;5.50;;;;;;;11.25;nan;-24131.31;4887432;29;20215;-76
2022/05/06 02:18:12;;;;;;;9.02;4.70;;;;;;;10.92;nan;-24122.13;4887056;29;20199;-77
2022/05/06 02:20:37;;;;;;;6.20;4.50;;;;;;;10.72;nan;-24116.50;4886272;29;20196;-76
2022/05/06 02:23:03;;;;;;;6.97;4.95;;;;;;;10.84;nan;-24119.88;4886804;29;20215;-75
2022/05/06 02:25:29;;;;;;;7.15;5.00;;;;;;;10.95;nan;-24123.00;4887404;29;20207;-75
2022/05/06 02:27:54;;;;;;;11.75;5.43;;;;;;;11.20;nan;-24129.88;4886021;29;22024;-76
2022/05/06 02:33:46;;;;;;;6.40;4.85;;;;;;;10.69;nan;-24115.50;4887087;29;20207;-74
2022/05/06 02:35:53;;;;;;;7.63;4.82;;;;;;;10.81;nan;-24119.03;4879225;29;20223;-76
2022/05/06 02:38:19;;;;;;;9.18;4.72;;;;;;;10.66;nan;-24114.81;4884894;29;20192;-75
2022/05/06 02:40:45;;;;;;;7.63;5.20;;;;;;;10.91;nan;-24121.84;4886034;29;20275;-75
2022/05/06 02:43:11;;;;;;;6.20;4.67;;;;;;;10.74;nan;-24117.06;4884861;29;20751;-76
2022/05/06 02:45:36;;;;;;;11.83;5.20;;;;;;;10.50;nan;-24110.44;4887507;29;20200;-74
2022/05/06 02:48:03;;;;;;;8.00;5.57;;;;;;;10.69;nan;-24115.50;4887925;29;20196;-75
2022/05/06 02:50:28;;;;;;;8.90;4.80;;;;;;;10.51;nan;-24110.56;4889916;29;21869;-75
2022/05/06 02:52:54;;;;;;;7.45;5.20;;;;;;;10.70;nan;-24115.94;4889975;29;20200;-76
2022/05/06 02:55:20;;;;;;;8.73;5.50;;;;;;;10.56;nan;-24111.97;4903753;29;20379;-75
2022/05/06 02:57:45;;;;;;;8.30;5.05;;;;;;;10.71;nan;-24116.22;4887081;29;20676;-75
2022/05/06 03:00:12;;;;;;;6.87;5.10;;;;;;;10.65;nan;-24114.53;4889068;29;20199;-77
2022/05/06 03:02:37;;;;;;;13.10;5.30;;;;;;;10.37;nan;-24106.75;4889625;29;20255;-76
2022/05/06 03:05:03;;;;;;;8.10;5.50;;;;;;;10.80;nan;-24118.63;4888468;29;20552;-75
2022/05/06 03:07:28;;;;;;;10.00;5.50;;;;;;;10.86;nan;-24120.31;4887535;29;20278;-75
2022/05/06 03:09:54;;;;;;;9.30;5.43;;;;;;;10.71;nan;-24116.06;4872774;29;20238;-75
2022/05/06 03:12:22;;;;;;;11.03;5.60;;;;;;;10.68;nan;-24115.22;4889508;29;20558;-77
2022/05/06 03:14:47;;;;;;;8.73;4.87;;;;;;;10.56;nan;-24112.13;4887989;29;20248;-75
2022/05/06 03:17:13;;;;;;;11.43;5.47;;;;;;;10.62;nan;-24113.81;4889059;29;20566;-75
2022/05/06 03:19:38;;;;;;;7.85;5.38;;;;;;;10.74;nan;-24117.06;4888054;29;20240;-76
2022/05/06 03:22:06;;;;;;;9.73;5.30;;;;;;;10.97;nan;-24123.53;4887492;29;21077;-76
2022/05/06 03:24:32;;;;;;;8.40;5.43;;;;;;;11.09;nan;-24126.78;4888908;29;20176;-76
2022/05/06 03:26:57;;;;;;;9.18;5.00;;;;;;;11.61;nan;-24141.16;4889523;29;20263;-76
2022/05/06 03:29:23;;;;;;;7.57;5.43;;;;;;;12.46;nan;-24164.81;4887186;29;20611;-75
2022/05/06 03:31:48;;;;;;;7.35;5.22;;;;;;;12.52;nan;-24166.66;4889237;29;20656;-75
2022/05/06 03:34:15;;;;;;;11.60;5.45;;;;;;;13.10;nan;-24182.69;4872581;29;20602;-76
2022/05/06 03:36:41;;;;;;;8.70;5.25;;;;;;;13.48;nan;-24193.22;4886158;29;20739;-74
2022/05/06 03:39:07;;;;;;;12.05;6.85;;;;;;;14.26;nan;-24214.84;4888115;29;20282;-76
2022/05/06 03:41:32;;;;;;;12.13;5.90;;;;;;;15.21;nan;-24241.34;4872752;29;20192;-76
2022/05/06 03:43:58;;;;;;;6.82;5.10;;;;;;;15.94;nan;-24261.50;4889164;29;20195;-75
2022/05/06 03:46:23;;;;;;;11.20;5.30;;;;;;;16.46;nan;-24275.75;4887295;29;20222;-75
2022/05/06 03:48:51;;;;;;;9.73;5.38;;;;;;;16.86;nan;-24286.78;4873991;29;20683;-77
2022/05/06 03:51:23;;;;;;;9.85;5.57;;;;;;;17.08;nan;-24293.09;4890934;29;20179;-76
2022/05/06 03:53:52;;;;;;;9.52;4.90;;;;;;;17.20;nan;-24296.28;4891344;29;20267;-76
2022/05/06 03:56:19;;;;;;;6.70;5.20;;;;;;;17.95;nan;-24316.94;4894313;29;20184;-77
2022/05/06 03:58:45;;;;;;;7.13;4.88;;;;;;;18.05;nan;-24319.88;4895361;29;20196;-75
2022/05/06 04:01:11;;;;;;;7.82;4.70;;;;;;;17.21;nan;-24296.72;4892252;29;20227;-76
2022/05/06 04:03:41;;;;;;;7.30;4.95;;;;;;;16.46;nan;-24275.88;4904452;29;20638;-77
2022/05/06 04:06:06;;;;;;;9.60;4.82;;;;;;;15.84;nan;-24258.84;4889074;29;20283;-76
2022/05/06 04:08:32;;;;;;;8.43;5.07;;;;;;;15.19;nan;-24240.63;4889913;29;20279;-74
2022/05/06 04:10:57;;;;;;;7.20;4.97;;;;;;;14.38;nan;-24218.22;4877267;29;20617;-74
2022/05/06 04:13:23;;;;;;;9.05;5.38;;;;;;;14.76;nan;-24228.72;4891511;29;20223;-75
2022/05/06 04:15:50;;;;;;;12.00;5.75;;;;;;;14.42;nan;-24219.47;4891524;29;20310;-76
2022/05/06 04:18:16;;;;;;;10.80;5.72;;;;;;;14.40;nan;-24218.75;4889395;29;20243;-67
2022/05/06 04:23:32;;;;;;;10.73;6.05;;;;;;;14.28;nan;-24215.41;4890825;29;20195;-69
2022/05/06 04:26:03;;;;;;;10.00;6.35;;;;;;;13.94;nan;-24206.13;4890632;29;20183;-70
2022/05/06 04:28:29;;;;;;;11.75;6.70;;;;;;;14.07;nan;-24209.78;4890857;29;20203;-68
2022/05/06 04:30:55;;;;;;;9.57;6.20;;;;;;;14.08;nan;-24209.91;4888477;29;20688;-68
2022/05/06 04:33:26;;;;;;;9.85;6.32;;;;;;;13.71;nan;-24199.69;4891495;29;20192;-69
2022/05/06 04:35:53;;;;;;;8.82;6.13;;;;;;;13.90;nan;-24205.00;4889292;29;20212;-70
2022/05/06 04:38:19;;;;;;;9.48;6.50;;;;;;;13.66;nan;-24198.28;4889955;29;20196;-70
2022/05/06 04:40:45;;;;;;;13.32;6.72;;;;;;;13.91;nan;-24205.16;4890795;29;20177;-66
2022/05/06 04:43:11;;;;;;;10.75;6.38;;;;;;;13.79;nan;-24201.91;4890912;29;20188;-67
2022/05/06 04:45:38;;;;;;;11.88;6.65;;;;;;;13.99;nan;-24207.53;4892116;29;20180;-67
2022/05/06 04:48:05;;;;;;;9.50;6.57;;;;;;;14.04;nan;-24208.94;4896667;29;20176;-67
2022/05/06 04:50:31;;;;;;;11.75;6.70;;;;;;;13.91;nan;-24205.28;4897307;29;20184;-69
2022/05/06 04:52:57;;;;;;;11.55;6.63;;;;;;;14.35;nan;-24217.50;4895402;29;20184;-68
2022/05/06 04:55:23;;;;;;;11.73;7.53;;;;;;;14.36;nan;-24217.66;4894974;29;20338;-67
2022/05/06 04:57:48;;;;;;;9.30;6.60;;;;;;;14.25;nan;-24214.56;4895632;29;20240;-68
2022/05/06 05:00:14;;;;;;;11.30;7.30;;;;;;;14.42;nan;-24219.47;4903194;29;20188;-67
2022/05/06 05:02:39;;;;;;;11.50;7.15;;;;;;;14.62;nan;-24224.94;4888976;29;20700;-67
2022/05/06 05:05:05;;;;;;;10.40;7.45;;;;;;;14.84;nan;-24231.09;4893689;29;20633;-67
2022/05/06 05:07:30;;;;;;;15.30;8.65;;;;;;;14.91;nan;-24233.06;4894631;29;20200;-69
2022/05/06 05:09:56;;;;;;;11.90;8.18;;;;;;;15.00;nan;-24235.44;4892640;29;20635;-70
2022/05/06 05:12:24;;;;;;;13.48;7.80;;;;;;;14.79;nan;-24229.56;4889822;29;20184;-67
2022/05/06 05:14:51;;;;;;;9.88;7.22;;;;;;;11.84;nan;-24147.78;4906040;29;20215;-67
2022/05/06 05:17:16;;;;;;;10.52;7.43;;;;;;;15.24;nan;-24242.16;4891289;29;20226;-67
2022/05/06 05:19:42;;;;;;;11.05;6.95;;;;;;;15.42;nan;-24247.22;4889729;29;20221;-66
2022/05/06 05:22:08;;;;;;;10.82;7.15;;;;;;;15.55;nan;-24250.56;4889240;29;20255;-66
2022/05/06 05:24:33;;;;;;;12.05;7.63;;;;;;;15.44;nan;-24247.63;4892183;29;20235;-67
2022/05/06 05:26:59;;;;;;;11.73;8.07;;;;;;;15.55;nan;-24250.56;4892495;29;20188;-68
2022/05/06 05:29:24;;;;;;;16.42;8.90;;;;;;;15.54;nan;-24250.31;4890738;29;20224;-67
2022/05/06 05:31:51;;;;;;;12.68;8.20;;;;;;;15.81;nan;-24257.84;4896351;29;20258;-70
2022/05/06 05:34:18;;;;;;;12.32;8.40;;;;;;;15.91;nan;-24260.66;4894146;29;20281;-68
2022/05/06 05:36:44;;;;;;;12.35;8.15;;;;;;;16.17;nan;-24267.94;4889436;29;20263;-69
2022/05/06 05:39:13;;;;;;;11.48;7.70;;;;;;;16.23;nan;-24269.47;4893752;29;20184;-68
2022/05/06 05:41:39;;;;;;;10.70;6.53;;;;;;;16.11;nan;-24266.25;4893810;29;20195;-66
2022/05/06 05:49:33;;;;;;;10.23;6.63;;;;;;;16.86;nan;-24286.78;4894691;29;20333;-69
2022/05/06 05:51:59;;;;;;;13.15;6.90;;;;;;;16.90;nan;-24288.06;4896531;29;20635;-71
2022/05/06 05:54:26;;;;;;;13.98;7.63;;;;;;;16.99;nan;-24290.44;4894038;29;20306;-69
2022/05/06 05:56:52;;;;;;;13.10;7.97;;;;;;;14.55;nan;-24222.97;4894974;29;20237;-69
2022/05/06 05:59:18;;;;;;;13.32;7.35;;;;;;;17.03;nan;-24291.69;4896199;29;20191;-68
2022/05/06 06:01:43;;;;;;;13.00;7.45;;;;;;;17.19;nan;-24296.00;4907618;29;20223;-66
2022/05/06 06:04:09;;;;;;;16.27;8.13;;;;;;;17.65;nan;-24308.72;4902086;29;20730;-66
2022/05/06 06:06:34;;;;;;;10.95;6.82;;;;;;;17.51;nan;-24304.94;4896187;29;20546;-67
2022/05/06 06:09:03;;;;;;;11.57;7.43;;;;;;;17.73;nan;-24310.81;4893285;29;20712;-72
2022/05/06 06:11:28;;;;;;;11.35;6.85;;;;;;;17.94;nan;-24316.66;4893279;29;20255;-67
2022/05/06 06:13:54;;;;;;;13.18;7.82;;;;;;;17.98;nan;-24317.78;4894840;29;20648;-68
2022/05/06 06:16:19;;;;;;;16.92;8.35;;;;;;;18.10;nan;-24321.25;4910878;29;20732;-71
2022/05/06 06:18:46;;;;;;;14.05;7.90;;;;;;;18.47;nan;-24331.44;4914951;29;20176;-70
2022/05/06 06:21:12;;;;;;;15.43;8.02;;;;;;;18.62;nan;-24335.47;4910984;29;20696;-67
2022/05/06 06:23:56;;;;;;;21.25;8.23;;;;;;;18.61;nan;-24335.06;4897496;29;20275;-69
2022/05/06 06:26:22;;;;;;;14.73;8.10;;;;;;;18.53;nan;-24333.13;4912970;29;20191;-69
2022/05/06 06:28:47;;;;;;;10.88;6.80;;;;;;;18.90;nan;-24343.13;4898295;29;20208;-70
2022/05/06 06:31:13;;;;;;;11.68;6.93;;;;;;;18.60;nan;-24334.78;4895583;29;20184;-70
2022/05/06 06:33:38;;;;;;;13.45;6.10;;;;;;;18.23;nan;-24324.75;4894966;29;20195;-67
2022/05/06 06:36:05;;;;;;;10.60;6.20;;;;;;;18.16;nan;-24322.81;4893958;29;20219;-71
2022/05/06 06:38:31;;;;;;;15.68;7.07;;;;;;;17.89;nan;-24315.41;4895373;29;21647;-69
2022/05/06 06:40:56;;;;;;;11.80;6.82;;;;;;;18.04;nan;-24319.59;4895711;29;20278;-70
2022/05/06 06:43:21;;;;;;;9.45;6.35;;;;;;;18.21;nan;-24324.19;4897727;29;20584;-67
2022/05/06 06:45:47;;;;;;;9.00;6.35;;;;;;;18.70;nan;-24337.72;4898601;29;20192;-68
2022/05/06 06:48:12;;;;;;;13.95;7.15;;;;;;;18.85;nan;-24341.75;4899983;29;20176;-69
2022/05/06 06:50:39;;;;;;;10.45;5.93;;;;;;;18.85;nan;-24341.75;4898099;29;20582;-70
2022/05/06 06:53:05;;;;;;;8.48;5.90;;;;;;;19.06;nan;-24347.44;4899676;29;20176;-68
2022/05/06 06:55:31;;;;;;;11.77;5.97;;;;;;;18.95;nan;-24344.66;4897737;29;20199;-67
2022/05/06 06:58:00;;;;;;;8.18;5.53;;;;;;;19.44;nan;-24357.88;4880841;29;20180;-70
2022/05/06 07:00:26;;;;;;;8.65;5.50;;;;;;;19.03;nan;-24346.63;4897629;29;20200;-68
2022/05/06 07:02:53;;;;;;;8.82;5.50;;;;;;;18.57;nan;-24333.94;4896508;29;20230;-67
2022/05/06 07:05:19;;;;;;;9.13;5.78;;;;;;;19.02;nan;-24346.47;4894132;29;20219;-69
2022/05/06 07:13:12;;;;;;;9.05;5.63;;;;;;;18.05;nan;-24319.72;4896414;29;20195;-67
2022/05/06 07:15:37;;;;;;;7.53;5.72;;;;;;;18.29;nan;-24326.28;4894818;29;20632;-70
2022/05/06 07:18:03;;;;;;;9.32;5.95;;;;;;;18.72;nan;-24338.25;4897008;29;20180;-69
2022/05/06 07:20:28;;;;;;;9.77;5.78;;;;;;;;;;4898609;29;20184;-68
2022/05/06 07:22:54;;;;;;;8.68;6.30;;;;;;;18.80;nan;-24340.34;4897334;29;20176;-67
2022/05/06 07:25:20;;;;;;;10.55;5.95;;;;;;;19.16;nan;-24350.22;4898723;29;20195;-66
2022/05/06 07:27:46;;;;;;;11.30;6.07;;;;;;;18.92;nan;-24343.84;4896369;29;20573;-68
2022/05/06 07:30:12;;;;;;;7.70;6.35;;;;;;;18.88;nan;-24342.56;4894628;29;20263;-68
2022/05/06 07:32:38;;;;;;;8.82;6.40;;;;;;;18.49;nan;-24331.84;4896417;29;20242;-70
2022/05/06 07:35:04;;;;;;;9.60;6.88;;;;;;;18.10;nan;-24321.25;4897926;29;20220;-66
2022/05/06 07:37:33;;;;;;;13.95;6.40;;;;;;;18.88;nan;-24342.56;4894514;29;20196;-72
2022/05/06 07:40:11;;;;;;;11.23;6.43;;;;;;;19.50;nan;-24359.56;4895998;29;20187;-70
2022/05/06 07:42:43;;;;;;;8.82;5.95;;;;;;;19.56;nan;-24361.22;4889798;29;20184;-68
2022/05/06 07:45:11;;;;;;;12.25;6.22;;;;;;;19.69;nan;-24364.84;4895646;29;20263;-68
2022/05/06 07:47:37;;;;;;;8.63;6.20;;;;;;;19.92;nan;-24371.09;4895866;29;20243;-67
2022/05/06 07:50:03;;;;;;;8.68;6.20;;;;;;;20.36;nan;-24383.31;4895883;29;20184;-68
2022/05/06 07:52:28;;;;;;;9.05;6.00;;;;;;;20.54;nan;-24388.19;4898374;29;20566;-68
2022/05/06 07:54:54;;;;;;;9.15;5.97;;;;;;;20.32;nan;-24382.22;4897329;29;20214;-68
2022/05/06 07:57:19;;;;;;;12.25;6.10;;;;;;;20.41;nan;-24384.56;4897424;29;20710;-69
2022/05/06 07:59:45;;;;;;;7.13;5.55;;;;;;;19.01;nan;-24346.19;4898239;29;20378;-68
2022/05/06 08:04:54;;;;;;;8.93;6.13;;;;;;;19.77;nan;-24367.19;4895709;29;20581;-70
2022/05/06 08:07:20;;;;;;;10.90;5.80;;;;;;;20.02;nan;-24373.88;4904396;29;20278;-69
2022/05/06 08:09:45;;;;;;;8.25;5.47;;;;;;;20.53;nan;-24388.03;4905173;29;20247;-68
2022/05/06 08:12:10;;;;;;;9.10;5.45;;;;;;;20.89;nan;-24397.75;4914609;29;20578;-69
2022/05/06 08:14:36;;;;;;;8.07;5.05;;;;;;;20.92;nan;-24398.72;4895967;29;20218;-67
2022/05/06 08:17:03;;;;;;;7.22;5.47;;;;;;;20.56;nan;-24388.75;4895390;29;20227;-68
2022/05/06 08:19:28;;;;;;;8.55;5.88;;;;;;;20.36;nan;-24383.19;4890121;29;20184;-66
2022/05/06 08:21:54;;;;;;;8.98;5.55;;;;;;;20.54;nan;-24388.31;4911368;29;20623;-67
2022/05/06 08:24:21;;;;;;;7.40;5.30;;;;;;;20.58;nan;-24389.28;4894293;29;20243;-67
2022/05/06 08:26:47;;;;;;;10.77;5.82;;;;;;;20.43;nan;-24385.13;4895125;29;20179;-68
2022/05/06 08:29:13;;;;;;;10.50;5.57;;;;;;;20.85;nan;-24396.66;4892235;29;20620;-70
2022/05/06 08:31:40;;;;;;;11.82;6.15;;;;;;;20.11;nan;-24376.38;4894097;29;20223;-70
2022/05/06 08:34:10;;;;;;;8.82;6.05;;;;;;;20.43;nan;-24385.28;4891045;29;20699;-67
2022/05/06 08:36:39;;;;;;;8.82;5.97;;;;;;;20.52;nan;-24387.75;4893398;29;20203;-67
2022/05/06 08:39:05;;;;;;;7.28;5.53;;;;;;;20.83;nan;-24396.22;4892294;29;20258;-70
2022/05/06 08:41:31;;;;;;;6.07;5.07;;;;;;;21.01;nan;-24401.22;4901161;29;20191;-68
2022/05/06 08:50:50;;;;;;;8.65;5.60;;;;;;;20.99;nan;-24400.53;4895432;29;20614;-69
2022/05/06 08:52:19;;;;;;;7.95;5.18;;;;;;;21.83;nan;-24423.69;4896393;29;20186;-68
2022/05/06 08:54:46;;;;;;;8.23;5.88;;;;;;;21.67;nan;-24419.09;4894801;29;20212;-67
2022/05/06 08:57:11;;;;;;;9.40;6.00;;;;;;;22.02;nan;-24428.94;4897158;29;20176;-68
2022/05/06 08:59:37;;;;;;;10.68;6.05;;;;;;;22.58;nan;-24444.16;4895665;29;20640;-70
2022/05/06 09:02:03;;;;;;;9.57;5.78;;;;;;;23.08;nan;-24457.84;4896835;29;20703;-69
2022/05/06 09:04:28;;;;;;;10.93;6.13;;;;;;;21.85;nan;-24424.22;4897922;29;20194;-68
2022/05/06 09:07:17;;;;;;;11.65;6.65;;;;;;;21.64;nan;-24418.41;4915826;29;20179;-69
2022/05/06 09:09:43;;;;;;;10.80;7.43;;;;;;;21.12;nan;-24404.13;4896608;29;20196;-67
2022/05/06 09:17:47;;;;;;;11.88;6.68;;;;;;;22.03;nan;-24429.09;4892442;29;20271;-69
2022/05/06 09:20:20;;;;;;;11.65;6.68;;;;;;;22.33;nan;-24437.38;4905686;29;21655;-68
2022/05/06 09:22:47;;;;;;;9.98;6.75;;;;;;;22.77;nan;-24449.41;4886760;29;20249;-69
2022/05/06 09:25:42;;;;;;;11.13;6.60;;;;;;;22.68;nan;-24446.94;4889910;29;20260;-70
2022/05/06 09:28:29;;;;;;;11.82;7.15;;;;;;;22.29;nan;-24436.28;4891579;29;20216;-66
2022/05/06 09:30:59;;;;;;;10.35;6.85;;;;;;;22.14;nan;-24432.00;4905690;29;20187;-69
2022/05/06 09:33:25;;;;;;;11.27;6.72;;;;;;;21.92;nan;-24426.16;4890620;29;20180;-69
2022/05/06 09:35:52;;;;;;;11.52;6.60;;;;;;;22.73;nan;-24448.19;4905870;29;20729;-67
2022/05/06 09:38:18;;;;;;;11.52;6.43;;;;;;;22.40;nan;-24439.19;4888464;29;20184;-67
2022/05/06 09:40:44;;;;;;;12.68;6.78;;;;;;;22.28;nan;-24435.88;4889596;29;20562;-66
2022/05/06 09:43:16;;;;;;;8.52;6.10;;;;;;;22.47;nan;-24441.13;4889530;29;20195;-69
2022/05/06 09:45:43;;;;;;;8.90;6.05;;;;;;;22.78;nan;-24449.56;4890651;29;20577;-68
2022/05/06 09:48:12;;;;;;;9.52;6.22;;;;;;;21.94;nan;-24426.72;4892586;29;20192;-65
2022/05/06 09:50:45;;;;;;;7.75;6.05;;;;;;;22.36;nan;-24438.06;4910355;29;20210;-65
2022/05/06 09:53:16;;;;;;;10.10;6.70;;;;;;;22.43;nan;-24440.16;4896415;29;20188;-68
2022/05/06 09:55:46;;;;;;;8.73;6.32;;;;;;;22.27;nan;-24435.72;4894632;29;20240;-68
2022/05/06 09:58:14;;;;;;;10.57;6.68;;;;;;;21.93;nan;-24426.31;4893730;29;20188;-67
2022/05/06 10:00:39;;;;;;;11.30;7.13;;;;;;;22.08;nan;-24430.31;4893544;29;20196;-68
2022/05/06 10:03:06;;;;;;;9.50;6.93;;;;;;;22.03;nan;-24429.09;4894590;29;20192;-68
2022/05/06 10:05:34;;;;;;;11.15;6.80;;;;;;;21.69;nan;-24419.78;4892641;29;20195;-67
2022/05/06 10:08:06;;;;;;;9.32;6.32;;;;;;;22.49;nan;-24441.66;4895478;29;20572;-67
2022/05/06 10:10:38;;;;;;;11.82;5.95;;;;;;;22.35;nan;-24437.94;4893171;29;20191;-68
2022/05/06 10:13:11;;;;;;;12.73;5.88;;;;;;;22.76;nan;-24449.16;4895244;29;20191;-67
2022/05/06 10:15:37;;;;;;;9.35;6.50;;;;;;;23.02;nan;-24456.19;4893779;29;20236;-66
2022/05/06 10:18:07;;;;;;;14.90;6.43;;;;;;;23.38;nan;-24466.00;4894728;29;20287;-69
2022/05/06 10:20:45;;;;;;;9.40;6.78;;;;;;;23.29;nan;-24463.50;4897671;29;20694;-67
2022/05/06 10:23:12;;;;;;;7.78;6.13;;;;;;;23.27;nan;-24462.97;4896608;29;20186;-67
2022/05/06 10:25:40;;;;;;;7.93;5.85;;;;;;;23.43;nan;-24467.25;4895929;29;20560;-69
2022/05/06 10:34:12;;;;;;;7.15;4.82;;;;;;;24.31;nan;-24491.41;4889458;29;20294;-67
2022/05/06 10:36:45;;;;;;;9.15;5.03;;;;;;;24.34;nan;-24492.22;4894360;29;20195;-68
2022/05/06 10:39:40;;;;;;;9.23;5.32;;;;;;;24.94;nan;-24508.63;4895553;29;20279;-68
2022/05/06 10:42:08;;;;;;;9.45;5.63;;;;;;;25.45;nan;-24522.53;4892923;29;20235;-69
2022/05/06 10:44:35;;;;;;;6.63;5.10;;;;;;;25.60;nan;-24526.38;4894606;29;20180;-66
2022/05/06 10:47:13;;;;;;;6.20;4.68;;;;;;;25.43;nan;-24521.97;4890344;29;20637;-70
2022/05/06 10:49:38;;;;;;;7.70;4.65;;;;;;;25.47;nan;-24523.06;4904912;29;20674;-67
2022/05/06 10:52:24;;;;;;;7.75;4.80;;;;;;;24.90;nan;-24507.38;4892498;29;20184;-67
2022/05/06 10:55:02;;;;;;;6.43;4.40;;;;;;;24.82;nan;-24505.31;4910763;29;20231;-66
2022/05/06 10:57:30;;;;;;;5.90;4.18;;;;;;;25.20;nan;-24515.50;4896777;29;20184;-66
2022/05/06 11:00:01;;;;;;;7.47;4.30;;;;;;;24.99;nan;-24509.84;4894587;29;20188;-65
2022/05/06 11:02:31;;;;;;;8.13;4.38;;;;;;;24.92;nan;-24508.06;4894335;29;20672;-69
2022/05/06 11:04:58;;;;;;;7.10;3.88;;;;;;;24.22;nan;-24488.91;4893982;29;20668;-69
2022/05/06 11:07:24;;;;;;;5.75;4.38;;;;;;;24.51;nan;-24496.91;4898103;29;20212;-71
2022/05/06 11:09:51;;;;;;;6.53;4.10;;;;;;;25.07;nan;-24512.06;4894492;29;20208;-66
2022/05/06 11:12:31;;;;;;;5.57;3.63;;;;;;;25.27;nan;-24517.44;4893714;29;20684;-68
2022/05/06 11:15:03;;;;;;;5.57;3.78;;;;;;;24.76;nan;-24503.66;4895360;29;20215;-66
2022/05/06 11:17:33;;;;;;;6.40;3.55;;;;;;;24.01;nan;-24483.25;4891264;29;20210;-72
2022/05/06 11:20:17;;;;;;;5.03;3.63;;;;;;;24.02;nan;-24483.41;4892965;29;20184;-69
2022/05/06 11:22:52;;;;;;;4.90;3.80;;;;;;;24.07;nan;-24484.78;4889627;29;20184;-69
2022/05/06 11:25:18;;;;;;;4.18;3.45;;;;;;;24.05;nan;-24484.22;4888681;29;20699;-67
2022/05/06 11:27:44;;;;;;;4.90;3.20;;;;;;;23.92;nan;-24480.78;4903386;29;20183;-67
2022/05/06 11:30:17;;;;;;;4.85;3.58;;;;;;;24.27;nan;-24490.16;4890263;29;20208;-67
2022/05/06 11:32:47;;;;;;;4.78;3.60;;;;;;;24.06;nan;-24484.63;4888618;29;21171;-66
2022/05/06 11:35:19;;;;;;;4.72;3.20;;;;;;;24.17;nan;-24487.69;4889806;29;20278;-67
2022/05/06 11:37:44;;;;;;;5.18;3.70;;;;;;;24.92;nan;-24507.94;4887894;29;20231;-69
2022/05/06 11:42:50;;;;;;;4.70;3.40;;;;;;;24.16;nan;-24487.41;4888113;29;20192;-66
2022/05/06 11:48:07;;;;;;;9.15;3.45;;;;;;;24.45;nan;-24495.25;4888176;29;20215;-66
2022/05/06 11:50:33;;;;;;;5.32;3.65;;;;;;;24.04;nan;-24483.94;4888754;29;20176;-70
2022/05/06 11:53:01;;;;;;;5.25;3.50;;;;;;;24.32;nan;-24491.69;4889482;29;20204;-66
2022/05/06 11:55:28;;;;;;;4.97;3.25;;;;;;;24.30;nan;-24491.13;4903386;29;20211;-68
2022/05/06 11:57:56;;;;;;;9.30;3.15;;;;;;;24.57;nan;-24498.56;4888734;29;20195;-70
2022/05/06 12:00:22;;;;;;;5.15;3.47;;;;;;;24.68;nan;-24501.31;4887361;29;20216;-69
2022/05/06 12:02:49;;;;;;;4.68;3.60;;;;;;;24.74;nan;-24503.09;4889944;29;20267;-66
2022/05/06 12:05:16;;;;;;;4.43;3.10;;;;;;;24.63;nan;-24500.22;4888945;29;20199;-69
2022/05/06 12:07:48;;;;;;;3.47;3.15;;;;;;;24.99;nan;-24509.84;4891958;29;20561;-66
2022/05/06 12:10:26;;;;;;;4.35;3.50;;;;;;;25.31;nan;-24518.53;4890994;29;20191;-67
2022/05/06 12:12:57;;;;;;;8.65;3.72;;;;;;;25.28;nan;-24517.72;4888058;29;20670;-69
2022/05/06 12:15:39;;;;;;;8.05;3.47;;;;;;;24.81;nan;-24504.91;4897447;29;20203;-69
2022/05/06 12:18:06;;;;;;;17.35;3.63;;;;;;;24.73;nan;-24502.69;4890520;29;20184;-68
2022/05/06 12:20:50;;;;;;;4.82;3.50;;;;;;;24.70;nan;-24502.00;4888808;29;20285;-71
2022/05/06 12:23:26;;;;;;;6.03;3.67;;;;;;;24.29;nan;-24490.84;4887093;29;20593;-68
2022/05/06 12:25:56;;;;;;;4.30;3.38;;;;;;;24.70;nan;-24502.00;4870189;29;20183;-69
2022/05/06 12:28:23;;;;;;;4.40;3.28;;;;;;;24.67;nan;-24501.03;4885737;29;20644;-65